LEGE/GRO METAR and TAF weather

Enter ICAO airport designator
Station Type Date Time Source
LEGE METAR 2022/07/01 01:30 UTC NOAA

LEGE 010130Z 35004KT 320V020 CAVOK 16/11 Q1016


Station Type Date Time Source
LEGE Decoded METAR 2022/07/01 01:30 UTC NOAA

Gerona / Costa Brava, Spain (LEGE) 41-54N 002-46E 129M
Jun 30, 2022 - 09:30 PM EDT / 2022.07.01 0130 UTC
Wind: from the N (350 degrees) at 5 MPH (4 KT) (direction variable):0
Visibility: greater than 7 mile(s):0
Temperature: 60 F (16 C)
Dew Point: 51 F (11 C)
Relative Humidity: 72%
Pressure (altimeter): 30.00 in. Hg (1016 hPa)
ob: LEGE 010130Z 35004KT 320V020 CAVOK 16/11 Q1016
cycle: 1

Station Type Date Time Source
LEGE TAF 2022/06/30 18:27 UTC NOAA

TAF LEGE 301700Z 3018/0118 07009KT 9999 FEW030 TX31/0113Z TN18/0106Z
BECMG 0112/0114 18010KT

Example: see airport list